Time;durP1;ratioP1;P1;durP2;ratioP2;P2;SDS_P1;SDS_P2;PMS_P1;PMS_P2;Temp;Humidity;BMP_temperature;BMP_pressure;BME280_temperature;BME280_humidity;BME280_pressure;Samples;Min_cycle;Max_cycle;Signal;HPM_P1;HPM_P2
2022/07/13 00:01:02;;;;;;;0.00;0.00;;;21.00;78.90;;;;;;4988635;28;20109;-67
2022/07/13 00:03:28;;;;;;;0.00;0.00;;;21.00;79.00;;;;;;4972637;28;20488;-68
2022/07/13 00:05:54;;;;;;;0.00;0.00;;;21.00;79.00;;;;;;4981749;28;20042;-67
2022/07/13 00:08:19;;;;;;;0.00;0.00;;;21.00;79.00;;;;;;4981526;28;20035;-67
2022/07/13 00:10:45;;;;;;;0.20;0.20;;;21.00;78.80;;;;;;4970305;28;20120;-68
2022/07/13 00:13:10;;;;;;;0.00;0.00;;;21.00;78.90;;;;;;4969371;28;20505;-67
2022/07/13 00:15:36;;;;;;;0.00;0.00;;;21.00;78.90;;;;;;4987994;28;20158;-68
2022/07/13 00:18:02;;;;;;;0.00;0.00;;;21.00;78.90;;;;;;4972840;28;20104;-67
2022/07/13 00:20:27;;;;;;;0.00;0.00;;;21.00;78.90;;;;;;4990547;28;20499;-67
2022/07/13 00:22:54;;;;;;;0.00;0.00;;;21.00;79.00;;;;;;4992975;28;20046;-67
2022/07/13 00:25:20;;;;;;;0.00;0.00;;;21.00;79.00;;;;;;4993508;28;20069;-67
2022/07/13 00:27:46;;;;;;;0.00;0.00;;;20.90;78.90;;;;;;4991417;28;20043;-68
2022/07/13 00:30:12;;;;;;;0.00;0.00;;;21.00;79.00;;;;;;4972970;28;20408;-67
2022/07/13 00:32:37;;;;;;;0.00;0.00;;;21.00;79.00;;;;;;4974142;28;20047;-67
2022/07/13 00:35:04;;;;;;;0.00;0.00;;;20.90;79.00;;;;;;4976350;28;20037;-67
2022/07/13 00:37:30;;;;;;;0.00;0.00;;;20.90;79.10;;;;;;5006751;28;20038;-67
2022/07/13 00:39:55;;;;;;;0.10;0.10;;;20.90;79.00;;;;;;4992803;28;20061;-68
2022/07/13 00:42:21;;;;;;;0.00;0.00;;;20.90;79.00;;;;;;4992930;28;20039;-67
2022/07/13 00:44:46;;;;;;;0.00;0.00;;;20.90;79.00;;;;;;4993351;28;20116;-67
2022/07/13 00:47:12;;;;;;;0.00;0.00;;;20.90;79.10;;;;;;4993378;28;20046;-66
2022/07/13 00:49:38;;;;;;;0.00;0.00;;;20.90;79.10;;;;;;4990176;28;20043;-68
2022/07/13 00:52:04;;;;;;;0.00;0.00;;;20.80;79.40;;;;;;4993170;28;20470;-67
2022/07/13 00:54:30;;;;;;;0.00;0.00;;;20.80;79.40;;;;;;4992618;28;20054;-68
2022/07/13 00:56:59;;;;;;;0.00;0.00;;;20.80;79.10;;;;;;4993040;28;20492;-67
2022/07/13 00:59:25;;;;;;;0.00;0.00;;;20.80;79.10;;;;;;4978322;28;20053;-67
2022/07/13 01:01:52;;;;;;;0.00;0.00;;;20.80;78.80;;;;;;4973758;28;20054;-68
2022/07/13 01:04:21;;;;;;;0.00;0.00;;;20.80;78.70;;;;;;4981472;28;20053;-67
2022/07/13 01:06:47;;;;;;;0.10;0.10;;;20.80;78.50;;;;;;4991628;28;20128;-68
2022/07/13 01:09:12;;;;;;;0.00;0.00;;;20.80;78.30;;;;;;4990529;28;20086;-67
2022/07/13 01:11:40;;;;;;;0.00;0.00;;;20.90;78.20;;;;;;4991709;28;20043;-67
2022/07/13 01:14:06;;;;;;;0.10;0.10;;;20.80;78.10;;;;;;4979965;28;20570;-67
2022/07/13 01:16:31;;;;;;;0.00;0.00;;;20.80;78.00;;;;;;4973650;28;20078;-67
2022/07/13 01:18:58;;;;;;;0.00;0.00;;;20.90;78.00;;;;;;4983776;28;20051;-67
2022/07/13 01:21:24;;;;;;;0.00;0.00;;;20.90;78.00;;;;;;4992751;28;20126;-68
2022/07/13 01:23:50;;;;;;;0.00;0.00;;;20.90;77.90;;;;;;4991586;28;20046;-67
2022/07/13 01:26:16;;;;;;;0.00;0.00;;;21.00;78.00;;;;;;4983272;28;20074;-68
2022/07/13 01:28:42;;;;;;;0.00;0.00;;;21.00;78.00;;;;;;4972874;28;20086;-67
2022/07/13 01:31:07;;;;;;;0.00;0.00;;;21.00;78.00;;;;;;4976600;28;20116;-68
2022/07/13 01:33:33;;;;;;;0.10;0.10;;;20.90;78.20;;;;;;4978770;28;20050;-67
2022/07/13 01:35:59;;;;;;;0.00;0.00;;;21.00;77.80;;;;;;4971665;28;20105;-68
2022/07/13 01:38:24;;;;;;;0.00;0.00;;;21.00;77.80;;;;;;4972811;28;20528;-67
2022/07/13 01:40:50;;;;;;;0.00;0.00;;;21.00;77.90;;;;;;4973915;28;20066;-68
2022/07/13 01:43:17;;;;;;;0.00;0.00;;;21.00;77.90;;;;;;4966665;28;20833;-67
2022/07/13 01:45:45;;;;;;;0.00;0.00;;;21.00;78.10;;;;;;4991101;28;20121;-68
2022/07/13 01:48:10;;;;;;;0.00;0.00;;;21.00;78.00;;;;;;4984266;28;20085;-68
2022/07/13 01:50:36;;;;;;;0.00;0.00;;;21.00;78.00;;;;;;4974800;28;20078;-68
2022/07/13 01:53:02;;;;;;;0.00;0.00;;;21.00;78.10;;;;;;4990764;28;20046;-68
2022/07/13 01:55:27;;;;;;;0.10;0.10;;;21.00;78.10;;;;;;4972987;28;20039;-68
2022/07/13 01:57:58;;;;;;;0.00;0.00;;;21.00;77.90;;;;;;4987965;28;20837;-67
2022/07/13 02:00:23;;;;;;;0.00;0.00;;;21.00;78.00;;;;;;4990437;28;20082;-68
2022/07/13 02:02:49;;;;;;;0.13;0.10;;;21.00;77.90;;;;;;4980222;28;20080;-67
2022/07/13 02:05:15;;;;;;;0.10;0.10;;;21.00;77.80;;;;;;4986716;28;20046;-67
2022/07/13 02:07:41;;;;;;;0.10;0.10;;;21.00;77.80;;;;;;4973471;28;20093;-67
2022/07/13 02:10:09;;;;;;;0.80;0.43;;;21.10;78.00;;;;;;4972256;28;20042;-67
2022/07/13 02:12:35;;;;;;;0.22;0.22;;;21.00;78.30;;;;;;4990727;28;20057;-69
2022/07/13 02:15:01;;;;;;;0.00;0.00;;;21.00;78.50;;;;;;4991629;28;20411;-68
2022/07/13 02:17:26;;;;;;;0.00;0.00;;;21.00;78.40;;;;;;4990843;28;20116;-68
2022/07/13 02:19:52;;;;;;;0.00;0.00;;;21.00;78.70;;;;;;4991527;28;20615;-68
2022/07/13 02:22:17;;;;;;;0.00;0.00;;;21.00;78.70;;;;;;4973983;28;20046;-68
2022/07/13 02:24:44;;;;;;;0.10;0.10;;;21.10;78.70;;;;;;4971922;28;20073;-68
2022/07/13 02:27:10;;;;;;;0.00;0.00;;;21.00;78.50;;;;;;4972147;28;20049;-68
2022/07/13 02:29:35;;;;;;;0.00;0.00;;;21.00;78.40;;;;;;4971180;28;20129;-68
2022/07/13 02:32:01;;;;;;;0.00;0.00;;;21.10;78.60;;;;;;4972195;28;20047;-67
2022/07/13 02:34:29;;;;;;;0.00;0.00;;;21.00;78.70;;;;;;4972068;28;20125;-67
2022/07/13 02:36:58;;;;;;;0.00;0.00;;;21.10;78.70;;;;;;4971942;28;20039;-67
2022/07/13 02:39:24;;;;;;;0.00;0.00;;;21.00;78.70;;;;;;4971485;28;20133;-68
2022/07/13 02:41:49;;;;;;;0.00;0.00;;;21.00;78.90;;;;;;4983194;28;20137;-67
2022/07/13 02:44:16;;;;;;;0.00;0.00;;;21.00;78.70;;;;;;4977452;28;20113;-67
2022/07/13 02:46:41;;;;;;;0.00;0.00;;;21.00;78.50;;;;;;4971853;28;20065;-68
2022/07/13 02:49:07;;;;;;;0.00;0.00;;;21.00;78.40;;;;;;4977567;28;20427;-67
2022/07/13 02:51:33;;;;;;;0.00;0.00;;;21.00;78.30;;;;;;4980145;28;20051;-67
2022/07/13 02:53:58;;;;;;;0.00;0.00;;;21.00;78.30;;;;;;4971427;28;20049;-68
2022/07/13 02:56:24;;;;;;;0.00;0.00;;;21.00;78.20;;;;;;4971375;28;20042;-68
2022/07/13 02:58:49;;;;;;;0.00;0.00;;;21.00;78.10;;;;;;4971419;28;20435;-68
2022/07/13 03:01:15;;;;;;;0.20;0.20;;;21.00;78.10;;;;;;4978770;28;20030;-68
2022/07/13 03:03:40;;;;;;;0.00;0.00;;;21.00;78.00;;;;;;4990775;28;20050;-67
2022/07/13 03:06:06;;;;;;;0.00;0.00;;;21.00;78.00;;;;;;4973466;28;20046;-67
2022/07/13 03:08:32;;;;;;;0.75;0.35;;;21.00;78.00;;;;;;4988492;28;20042;-67
2022/07/13 03:10:57;;;;;;;0.00;0.00;;;21.00;78.00;;;;;;4986070;28;20039;-67
2022/07/13 03:13:23;;;;;;;0.52;0.52;;;21.00;78.20;;;;;;4971246;28;20093;-68
2022/07/13 03:15:48;;;;;;;0.00;0.00;;;21.00;78.30;;;;;;4979396;28;20462;-67
2022/07/13 03:18:14;;;;;;;0.00;0.00;;;21.00;78.50;;;;;;4973183;28;20055;-67
2022/07/13 03:20:40;;;;;;;0.00;0.00;;;20.90;78.60;;;;;;4959371;28;20050;-67
2022/07/13 03:23:06;;;;;;;0.00;0.00;;;20.90;79.00;;;;;;4970717;28;20042;-68
2022/07/13 03:25:31;;;;;;;0.00;0.00;;;20.90;78.90;;;;;;4972148;28;20093;-68
2022/07/13 03:27:57;;;;;;;0.00;0.00;;;20.90;78.70;;;;;;4970519;28;20141;-68
2022/07/13 03:30:22;;;;;;;0.00;0.00;;;20.90;79.00;;;;;;4969534;28;20524;-68
2022/07/13 03:32:48;;;;;;;0.05;0.05;;;20.90;79.00;;;;;;4974204;28;20092;-68
2022/07/13 03:35:14;;;;;;;0.00;0.00;;;20.90;79.00;;;;;;4972541;28;20498;-68
2022/07/13 03:37:39;;;;;;;0.00;0.00;;;20.90;79.00;;;;;;4989412;28;20061;-68
2022/07/13 03:40:06;;;;;;;0.00;0.00;;;20.90;78.90;;;;;;4989680;28;20065;-67
2022/07/13 03:42:33;;;;;;;0.00;0.00;;;20.90;79.00;;;;;;4972209;28;20509;-67
2022/07/13 03:44:59;;;;;;;0.00;0.00;;;20.90;79.00;;;;;;4971040;28;20118;-67
2022/07/13 03:47:24;;;;;;;0.00;0.00;;;20.90;78.90;;;;;;4970295;28;20117;-67
2022/07/13 03:49:50;;;;;;;0.00;0.00;;;20.90;78.80;;;;;;4970724;28;20097;-68
2022/07/13 03:52:16;;;;;;;0.00;0.00;;;20.90;78.80;;;;;;4969123;28;20066;-67
2022/07/13 03:54:41;;;;;;;0.00;0.00;;;20.90;79.00;;;;;;4970032;28;20046;-67
2022/07/13 03:57:07;;;;;;;0.00;0.00;;;20.90;79.40;;;;;;4973509;28;20034;-67
2022/07/13 03:59:33;;;;;;;0.00;0.00;;;20.90;79.60;;;;;;4986937;28;20074;-68
2022/07/13 04:01:59;;;;;;;2.00;0.60;;;20.90;79.40;;;;;;4981775;28;20124;-67
2022/07/13 04:04:26;;;;;;;0.00;0.00;;;20.90;79.40;;;;;;4989899;28;20809;-68
2022/07/13 04:06:52;;;;;;;0.00;0.00;;;20.90;79.30;;;;;;4989661;28;20038;-68
2022/07/13 04:09:18;;;;;;;0.00;0.00;;;20.90;79.60;;;;;;4973990;28;20185;-68
2022/07/13 04:11:43;;;;;;;0.00;0.00;;;20.90;79.60;;;;;;4981039;28;20046;-68
2022/07/13 04:14:09;;;;;;;0.10;0.10;;;20.90;79.90;;;;;;4970599;28;20605;-67
2022/07/13 04:16:35;;;;;;;0.00;0.00;;;20.90;80.00;;;;;;4970354;28;20046;-68
2022/07/13 04:19:00;;;;;;;0.00;0.00;;;20.90;80.20;;;;;;4971058;28;20058;-67
2022/07/13 04:21:26;;;;;;;0.15;0.15;;;20.90;80.10;;;;;;4975736;28;20050;-68
2022/07/13 04:23:52;;;;;;;0.10;0.10;;;20.90;80.00;;;;;;4989225;28;20042;-68
2022/07/13 04:26:18;;;;;;;0.00;0.00;;;20.90;80.00;;;;;;4988993;28;20042;-67
2022/07/13 04:28:43;;;;;;;0.00;0.00;;;20.90;80.00;;;;;;4988463;28;20045;-68
2022/07/13 04:31:09;;;;;;;0.00;0.00;;;20.90;80.00;;;;;;4988109;28;20569;-67
2022/07/13 04:33:34;;;;;;;0.00;0.00;;;20.90;80.10;;;;;;4971433;28;20169;-68
2022/07/13 04:36:00;;;;;;;0.00;0.00;;;20.90;80.20;;;;;;4970213;28;20039;-68
2022/07/13 04:38:26;;;;;;;0.00;0.00;;;20.90;80.60;;;;;;4996593;28;20050;-67
2022/07/13 04:40:51;;;;;;;0.00;0.00;;;20.90;80.80;;;;;;4991381;28;20082;-67
2022/07/13 04:43:17;;;;;;;3.15;1.48;;;20.90;81.10;;;;;;4968799;28;20046;-67
2022/07/13 04:45:42;;;;;;;0.00;0.00;;;20.80;81.50;;;;;;4969912;28;20444;-68
2022/07/13 04:48:08;;;;;;;0.00;0.00;;;20.80;81.40;;;;;;4976156;28;20049;-67
2022/07/13 04:50:34;;;;;;;0.00;0.00;;;20.80;81.10;;;;;;4987508;28;20034;-67
2022/07/13 04:53:00;;;;;;;0.00;0.00;;;20.80;81.00;;;;;;4984974;28;20089;-68
2022/07/13 04:55:26;;;;;;;0.00;0.00;;;20.80;81.20;;;;;;4989025;28;20038;-67
2022/07/13 04:57:54;;;;;;;0.00;0.00;;;20.80;81.20;;;;;;4989554;28;20042;-68
2022/07/13 05:00:19;;;;;;;0.20;0.20;;;20.70;81.50;;;;;;4984003;28;20141;-68
2022/07/13 05:02:45;;;;;;;0.00;0.00;;;20.70;81.30;;;;;;4985108;28;20050;-68
2022/07/13 05:05:11;;;;;;;0.00;0.00;;;20.70;81.30;;;;;;4974939;28;20066;-68
2022/07/13 05:07:37;;;;;;;0.00;0.00;;;20.70;81.20;;;;;;4972135;28;20126;-68
2022/07/13 05:10:03;;;;;;;0.00;0.00;;;20.70;81.00;;;;;;4973361;28;20047;-68
2022/07/13 05:12:29;;;;;;;0.10;0.10;;;20.70;80.70;;;;;;4987674;28;20042;-68
2022/07/13 05:14:57;;;;;;;0.00;0.00;;;20.60;80.60;;;;;;4976773;28;20732;-68
2022/07/13 05:17:22;;;;;;;0.00;0.00;;;20.70;80.40;;;;;;4971997;28;20054;-67
2022/07/13 05:19:48;;;;;;;0.00;0.00;;;20.60;80.30;;;;;;4973250;28;20109;-68
2022/07/13 05:22:13;;;;;;;0.00;0.00;;;20.60;80.00;;;;;;4983567;28;20050;-68
2022/07/13 05:24:43;;;;;;;0.47;0.30;;;20.60;79.80;;;;;;4992663;28;20569;-68
2022/07/13 05:27:10;;;;;;;0.10;0.10;;;20.60;79.70;;;;;;4986901;28;20039;-68
2022/07/13 05:29:36;;;;;;;0.08;0.08;;;20.70;79.50;;;;;;4974447;28;20051;-68
2022/07/13 05:32:01;;;;;;;0.20;0.20;;;20.70;79.30;;;;;;4985948;28;20570;-68
2022/07/13 05:34:27;;;;;;;0.00;0.00;;;20.70;79.30;;;;;;4982307;28;20039;-68
2022/07/13 05:36:55;;;;;;;0.20;0.20;;;20.70;79.30;;;;;;4958966;28;21028;-69
2022/07/13 05:39:20;;;;;;;0.05;0.05;;;20.70;79.30;;;;;;4970657;28;20809;-69
2022/07/13 05:41:46;;;;;;;0.10;0.10;;;20.70;79.10;;;;;;4978945;28;20097;-68
2022/07/13 05:44:11;;;;;;;0.00;0.00;;;20.70;79.20;;;;;;4991710;28;20130;-68
2022/07/13 05:46:37;;;;;;;0.00;0.00;;;20.80;79.20;;;;;;4983799;28;20054;-68
2022/07/13 05:49:03;;;;;;;0.55;0.55;;;20.80;79.20;;;;;;4971244;28;20047;-68
2022/07/13 05:51:28;;;;;;;0.22;0.20;;;20.80;79.30;;;;;;4976142;28;20085;-69
2022/07/13 05:53:55;;;;;;;0.00;0.00;;;20.80;79.20;;;;;;4954491;28;20054;-68
2022/07/13 05:56:20;;;;;;;0.15;0.15;;;20.90;79.30;;;;;;4972326;28;20054;-69
2022/07/13 05:58:46;;;;;;;0.00;0.00;;;20.90;79.50;;;;;;4987515;28;20049;-68
2022/07/13 06:01:12;;;;;;;0.00;0.00;;;20.80;79.60;;;;;;4973372;28;20089;-69
2022/07/13 06:03:37;;;;;;;0.00;0.00;;;20.90;79.80;;;;;;4976391;28;20059;-69
2022/07/13 06:06:03;;;;;;;0.10;0.10;;;20.90;79.90;;;;;;4977196;28;20041;-71
2022/07/13 06:08:28;;;;;;;0.00;0.00;;;21.00;79.90;;;;;;4990014;28;20042;-68
2022/07/13 06:10:54;;;;;;;0.17;0.17;;;21.00;80.30;;;;;;4990822;28;20451;-70
2022/07/13 06:13:19;;;;;;;0.25;0.25;;;21.00;80.30;;;;;;4975354;28;20495;-68
2022/07/13 06:15:45;;;;;;;0.30;0.30;;;21.00;80.50;;;;;;4972240;28;20134;-69
2022/07/13 06:18:11;;;;;;;1.35;1.27;;;20.90;80.70;;;;;;4970359;28;20535;-70
2022/07/13 06:20:36;;;;;;;0.00;0.00;;;21.00;80.80;;;;;;4983566;28;20086;-67
2022/07/13 06:23:11;;;;;;;0.08;0.08;;;21.00;80.80;;;;;;4990596;28;20137;-69
2022/07/13 06:25:38;;;;;;;0.00;0.00;;;21.00;81.10;;;;;;4982125;28;20043;-68
2022/07/13 06:28:05;;;;;;;0.25;0.22;;;21.00;81.10;;;;;;4982407;28;20066;-73
2022/07/13 06:30:31;;;;;;;1.27;0.47;;;21.00;80.90;;;;;;4972378;28;20093;-69
2022/07/13 06:32:57;;;;;;;0.00;0.00;;;21.00;80.80;;;;;;4980105;28;20051;-68
2022/07/13 06:35:23;;;;;;;0.00;0.00;;;21.00;80.90;;;;;;4971970;28;20862;-68
2022/07/13 06:37:49;;;;;;;0.13;0.13;;;21.10;81.00;;;;;;4984707;28;20055;-71
2022/07/13 06:40:15;;;;;;;0.20;0.20;;;21.20;80.70;;;;;;4989512;28;20042;-72
2022/07/13 06:42:40;;;;;;;0.00;0.00;;;21.20;80.50;;;;;;4989824;28;20050;-71
2022/07/13 06:45:06;;;;;;;0.10;0.10;;;21.20;80.70;;;;;;4990491;28;20384;-72
2022/07/13 06:47:32;;;;;;;1.08;0.73;;;21.30;80.80;;;;;;4987764;28;20161;-71
2022/07/13 06:49:58;;;;;;;0.00;0.00;;;21.30;80.40;;;;;;4985576;28;20049;-71
2022/07/13 06:52:23;;;;;;;0.00;0.00;;;21.30;80.50;;;;;;4988065;28;20581;-71
2022/07/13 06:54:49;;;;;;;0.00;0.00;;;21.40;80.50;;;;;;4988459;28;20053;-71
2022/07/13 06:57:14;;;;;;;0.00;0.00;;;21.40;80.00;;;;;;4988763;28;20066;-71
2022/07/13 06:59:42;;;;;;;0.30;0.30;;;21.50;79.90;;;;;;4983819;28;20039;-70
2022/07/13 07:02:08;;;;;;;0.20;0.20;;;21.50;79.60;;;;;;4985040;28;20101;-70
2022/07/13 07:04:34;;;;;;;0.00;0.00;;;21.50;79.50;;;;;;4986677;28;20064;-69
2022/07/13 07:07:00;;;;;;;0.25;0.22;;;21.60;79.50;;;;;;4988044;28;20066;-69
2022/07/13 07:09:26;;;;;;;0.00;0.00;;;21.60;78.70;;;;;;4996780;28;20041;-69
2022/07/13 07:11:52;;;;;;;0.00;0.00;;;21.70;78.90;;;;;;4985760;28;20058;-69
2022/07/13 07:14:17;;;;;;;0.13;0.13;;;21.70;78.70;;;;;;4987773;28;20034;-70
2022/07/13 07:16:43;;;;;;;0.17;0.17;;;21.80;78.10;;;;;;5001278;28;20055;-68
2022/07/13 07:19:09;;;;;;;0.00;0.00;;;21.80;78.00;;;;;;4994414;28;20073;-68
2022/07/13 07:21:36;;;;;;;0.35;0.28;;;21.90;77.50;;;;;;4998105;28;20058;-69
2022/07/13 07:24:03;;;;;;;0.00;0.00;;;21.80;76.60;;;;;;4989844;28;20054;-69
2022/07/13 07:26:30;;;;;;;0.00;0.00;;;21.90;75.30;;;;;;5000344;28;20045;-69
2022/07/13 07:28:56;;;;;;;0.00;0.00;;;22.00;74.80;;;;;;4989604;28;20050;-69
2022/07/13 07:31:21;;;;;;;0.00;0.00;;;22.10;74.90;;;;;;4995886;28;20061;-68
2022/07/13 07:33:48;;;;;;;0.00;0.00;;;22.10;74.60;;;;;;4996567;28;20392;-68
2022/07/13 07:36:14;;;;;;;0.20;0.20;;;22.10;73.80;;;;;;4988828;28;20093;-69
2022/07/13 07:38:39;;;;;;;0.00;0.00;;;22.10;72.20;;;;;;4989534;28;20515;-68
2022/07/13 07:41:05;;;;;;;0.00;0.00;;;22.20;71.30;;;;;;4988212;28;20043;-67
2022/07/13 07:43:31;;;;;;;0.00;0.00;;;22.30;72.60;;;;;;4979860;28;20073;-66
2022/07/13 07:45:56;;;;;;;0.00;0.00;;;22.20;71.80;;;;;;4989815;28;20077;-67
2022/07/13 07:48:22;;;;;;;0.00;0.00;;;22.30;72.80;;;;;;4987212;28;20113;-68
2022/07/13 07:50:48;;;;;;;0.10;0.10;;;22.30;71.30;;;;;;4984334;28;20085;-67
2022/07/13 07:53:13;;;;;;;0.00;0.00;;;22.40;70.30;;;;;;4987564;28;20038;-67
2022/07/13 07:55:39;;;;;;;0.00;0.00;;;22.50;70.30;;;;;;4993936;28;20056;-68
2022/07/13 07:58:04;;;;;;;2.10;0.70;;;22.50;70.50;;;;;;4990973;28;20046;-67
2022/07/13 08:00:30;;;;;;;0.00;0.00;;;22.50;70.00;;;;;;4991758;28;20129;-67
2022/07/13 08:03:02;;;;;;;0.00;0.00;;;22.50;68.60;;;;;;4988380;28;20096;-68
2022/07/13 08:05:29;;;;;;;0.00;0.00;;;22.60;69.70;;;;;;4988933;28;20632;-68
2022/07/13 08:07:55;;;;;;;0.00;0.00;;;22.60;69.30;;;;;;4996262;28;20517;-68
2022/07/13 08:10:20;;;;;;;0.00;0.00;;;22.60;69.00;;;;;;4990709;28;20056;-68
2022/07/13 08:12:46;;;;;;;0.38;0.38;;;22.70;69.40;;;;;;4976789;28;20471;-68
2022/07/13 08:15:11;;;;;;;0.00;0.00;;;22.70;69.10;;;;;;4983549;28;20125;-68
2022/07/13 08:17:38;;;;;;;0.00;0.00;;;22.80;68.80;;;;;;4995656;28;20054;-68
2022/07/13 08:20:06;;;;;;;0.00;0.00;;;22.80;68.40;;;;;;4989027;28;20042;-68
2022/07/13 08:22:32;;;;;;;0.17;0.17;;;22.90;68.90;;;;;;4988230;28;20125;-67
2022/07/13 08:24:57;;;;;;;0.00;0.00;;;22.90;66.90;;;;;;4988353;28;20129;-68
2022/07/13 08:27:23;;;;;;;0.98;0.55;;;23.00;68.30;;;;;;4980361;28;20499;-67
2022/07/13 08:29:48;;;;;;;0.00;0.00;;;23.00;68.40;;;;;;4983226;28;20045;-68
2022/07/13 08:32:14;;;;;;;0.00;0.00;;;23.10;69.50;;;;;;4994575;28;20041;-68
2022/07/13 08:40:10;;;;;;;0.00;0.00;;;23.20;65.10;;;;;;4987458;28;20053;-67
2022/07/13 08:42:37;;;;;;;0.00;0.00;;;23.30;67.60;;;;;;4992114;28;20092;-68
2022/07/13 08:45:03;;;;;;;0.00;0.00;;;23.30;67.50;;;;;;4992711;28;20038;-68
2022/07/13 08:47:29;;;;;;;0.00;0.00;;;23.40;66.70;;;;;;4980802;28;20050;-68
2022/07/13 08:49:58;;;;;;;0.00;0.00;;;23.40;65.60;;;;;;4991526;28;20054;-68
2022/07/13 08:52:25;;;;;;;0.00;0.00;;;23.40;65.40;;;;;;4990693;28;20042;-68
2022/07/13 08:54:52;;;;;;;0.00;0.00;;;23.50;65.30;;;;;;4990976;28;20042;-68
2022/07/13 08:57:19;;;;;;;0.00;0.00;;;23.50;62.80;;;;;;4988645;28;20050;-68
2022/07/13 08:59:46;;;;;;;0.00;0.00;;;23.50;63.40;;;;;;4991745;28;20046;-68
2022/07/13 09:02:11;;;;;;;0.00;0.00;;;23.60;63.80;;;;;;4990111;28;20054;-67
2022/07/13 09:04:39;;;;;;;0.00;0.00;;;23.60;63.20;;;;;;4991840;28;20071;-68
2022/07/13 09:07:11;;;;;;;0.00;0.00;;;23.70;62.30;;;;;;4990784;28;20052;-66
2022/07/13 09:09:38;;;;;;;0.00;0.00;;;23.80;63.40;;;;;;4991197;28;20511;-68
2022/07/13 09:12:09;;;;;;;0.00;0.00;;;23.90;62.90;;;;;;4990988;28;20053;-67
2022/07/13 09:14:35;;;;;;;0.00;0.00;;;24.00;63.40;;;;;;4980092;28;20038;-68
2022/07/13 09:17:01;;;;;;;5.57;1.00;;;24.00;63.20;;;;;;4992218;28;20050;-68
2022/07/13 09:19:37;;;;;;;0.00;0.00;;;24.00;62.40;;;;;;4988298;28;20055;-68
2022/07/13 09:22:12;;;;;;;0.30;0.30;;;24.10;63.70;;;;;;4983704;28;20042;-67
2022/07/13 09:24:45;;;;;;;0.35;0.35;;;24.20;62.20;;;;;;4986326;28;20066;-68
2022/07/13 09:27:12;;;;;;;0.20;0.20;;;24.20;61.90;;;;;;4999102;28;20061;-68
2022/07/13 09:29:37;;;;;;;0.10;0.10;;;24.20;63.00;;;;;;4991868;28;20404;-68
2022/07/13 09:32:08;;;;;;;0.20;0.20;;;24.20;62.00;;;;;;4990458;28;20054;-68
2022/07/13 09:34:52;;;;;;;0.00;0.00;;;24.20;61.90;;;;;;4989500;28;20085;-69
2022/07/13 09:37:23;;;;;;;0.00;0.00;;;24.20;63.10;;;;;;4990755;28;20050;-68
2022/07/13 09:39:55;;;;;;;0.00;0.00;;;24.30;63.00;;;;;;4981703;28;20526;-68
2022/07/13 09:42:27;;;;;;;0.00;0.00;;;24.30;63.90;;;;;;4990483;28;20047;-69
2022/07/13 09:47:46;;;;;;;0.00;0.00;;;24.30;63.00;;;;;;4994885;28;20058;-68
2022/07/13 09:50:12;;;;;;;1.35;0.35;;;24.30;62.00;;;;;;4972546;28;20042;-70
2022/07/13 09:52:38;;;;;;;0.00;0.00;;;24.30;62.40;;;;;;4978634;28;20053;-69
2022/07/13 09:55:06;;;;;;;0.25;0.25;;;24.30;63.10;;;;;;4989952;28;20042;-69
2022/07/13 09:57:35;;;;;;;0.22;0.22;;;24.30;61.70;;;;;;4974794;28;20058;-69
2022/07/13 10:00:02;;;;;;;0.22;0.22;;;24.30;62.30;;;;;;4972088;28;20083;-69
2022/07/13 10:02:29;;;;;;;0.00;0.00;;;24.30;62.50;;;;;;4981201;28;20126;-69
2022/07/13 10:04:57;;;;;;;0.00;0.00;;;24.40;62.70;;;;;;4970920;28;20051;-69
2022/07/13 10:07:23;;;;;;;8.10;3.50;;;24.40;62.50;;;;;;4974081;28;20104;-69
2022/07/13 10:09:49;;;;;;;0.30;0.30;;;24.40;61.30;;;;;;4990731;28;20046;-70
2022/07/13 10:12:15;;;;;;;0.10;0.10;;;24.30;61.30;;;;;;4984915;28;20042;-69
2022/07/13 10:14:41;;;;;;;0.30;0.17;;;24.30;62.40;;;;;;4989457;28;20060;-69
2022/07/13 10:17:11;;;;;;;0.00;0.00;;;24.30;59.30;;;;;;4989475;28;20113;-69
2022/07/13 10:20:05;;;;;;;0.00;0.00;;;24.30;58.40;;;;;;4990875;28;20132;-69
2022/07/13 10:22:39;;;;;;;0.00;0.00;;;24.30;59.50;;;;;;4982723;28;20057;-70
2022/07/13 10:25:06;;;;;;;0.20;0.20;;;24.40;60.90;;;;;;4989901;28;20057;-70
2022/07/13 10:27:33;;;;;;;0.10;0.10;;;24.40;57.00;;;;;;4981374;28;20061;-69
2022/07/13 10:30:21;;;;;;;0.00;0.00;;;24.40;58.70;;;;;;4994924;28;20433;-70
2022/07/13 10:32:47;;;;;;;0.00;0.00;;;24.40;59.00;;;;;;4988258;28;20524;-69
2022/07/13 10:35:16;;;;;;;0.00;0.00;;;24.40;57.80;;;;;;4986028;28;20082;-70
2022/07/13 10:38:00;;;;;;;0.00;0.00;;;24.50;59.40;;;;;;4989405;28;20054;-70
2022/07/13 10:40:33;;;;;;;0.15;0.15;;;24.60;60.00;;;;;;4980015;28;20049;-69
2022/07/13 10:43:04;;;;;;;0.08;0.08;;;24.60;59.90;;;;;;4981730;28;20038;-71
2022/07/13 10:45:32;;;;;;;0.20;0.20;;;24.70;56.50;;;;;;4987289;28;20050;-70
2022/07/13 10:47:59;;;;;;;0.10;0.10;;;24.70;57.40;;;;;;4975247;28;20085;-70
2022/07/13 10:50:26;;;;;;;0.00;0.00;;;24.70;56.10;;;;;;4988342;28;20049;-70
2022/07/13 10:52:52;;;;;;;0.00;0.00;;;24.70;56.90;;;;;;4986971;28;20051;-72
2022/07/13 10:55:21;;;;;;;0.00;0.00;;;24.80;56.40;;;;;;4988274;28;20111;-71
2022/07/13 10:57:47;;;;;;;0.35;0.32;;;24.70;54.80;;;;;;5002341;28;20038;-70
2022/07/13 11:00:28;;;;;;;0.00;0.00;;;24.60;56.30;;;;;;4984740;28;20061;-69
2022/07/13 11:03:06;;;;;;;;;;;24.60;57.20;;;;;;4970546;28;20129;-70
2022/07/13 11:05:36;;;;;;;0.00;0.00;;;24.60;57.20;;;;;;4994493;28;19935;-69
2022/07/13 11:08:16;;;;;;;0.00;0.00;;;24.60;57.80;;;;;;4971320;28;20041;-70
2022/07/13 11:10:42;;;;;;;0.00;0.00;;;24.70;59.10;;;;;;4971433;28;20043;-69
2022/07/13 11:13:12;;;;;;;0.00;0.00;;;24.80;58.90;;;;;;4971605;28;20042;-70
2022/07/13 11:15:45;;;;;;;0.00;0.00;;;24.70;59.40;;;;;;4989563;28;20558;-70
2022/07/13 11:18:23;;;;;;;0.55;0.55;;;24.50;59.50;;;;;;4988440;28;20125;-69
2022/07/13 11:21:02;;;;;;;0.00;0.00;;;24.50;60.80;;;;;;4987398;28;20451;-69
2022/07/13 11:26:14;;;;;;;0.15;0.15;;;24.50;60.90;;;;;;4990121;28;20077;-68
2022/07/13 11:29:19;;;;;;;0.00;0.00;;;24.50;59.40;;;;;;4990112;28;20124;-68
2022/07/13 11:31:45;;;;;;;0.00;0.00;;;24.40;59.00;;;;;;4976563;28;20500;-68
2022/07/13 11:34:11;;;;;;;0.60;0.47;;;24.40;60.40;;;;;;4990095;28;20042;-68
2022/07/13 11:36:40;;;;;;;0.00;0.00;;;24.40;60.60;;;;;;4990159;28;20579;-67
2022/07/13 11:39:33;;;;;;;0.00;0.00;;;24.30;60.80;;;;;;4985163;28;20129;-68
2022/07/13 11:42:01;;;;;;;0.00;0.00;;;24.30;61.90;;;;;;4989837;28;20076;-68
2022/07/13 11:44:30;;;;;;;0.00;0.00;;;24.20;62.70;;;;;;4991523;28;20526;-68
2022/07/13 11:46:57;;;;;;;0.00;0.00;;;24.20;62.70;;;;;;4985268;28;20150;-68
2022/07/13 11:49:24;;;;;;;0.55;0.32;;;24.10;63.20;;;;;;4987173;28;20042;-68
2022/07/13 11:51:50;;;;;;;0.52;0.20;;;24.10;63.40;;;;;;4989724;28;20053;-69
2022/07/13 11:54:18;;;;;;;0.00;0.00;;;24.10;63.60;;;;;;4988593;28;20048;-68
2022/07/13 11:56:50;;;;;;;0.00;0.00;;;24.10;63.50;;;;;;4987113;28;20509;-68
2022/07/13 11:59:33;;;;;;;;;;;24.10;63.60;;;;;;4996031;28;20121;-68
2022/07/13 12:01:59;;;;;;;2.08;1.92;;;24.00;63.10;;;;;;4992962;28;19922;-68
2022/07/13 12:04:26;;;;;;;0.00;0.00;;;23.90;64.30;;;;;;4989522;28;20050;-68
2022/07/13 12:07:09;;;;;;;0.00;0.00;;;23.80;64.40;;;;;;4986651;28;20058;-71
2022/07/13 12:09:34;;;;;;;0.30;0.30;;;23.90;64.80;;;;;;4981984;28;20046;-71
2022/07/13 12:12:00;;;;;;;0.00;0.00;;;23.90;64.80;;;;;;4985325;28;20046;-68
2022/07/13 12:14:26;;;;;;;0.00;0.00;;;23.90;65.10;;;;;;4996425;28;20466;-68
2022/07/13 12:16:51;;;;;;;0.00;0.00;;;24.00;65.20;;;;;;4993573;28;20034;-68
2022/07/13 12:19:19;;;;;;;0.00;0.00;;;24.10;65.90;;;;;;4975711;28;20050;-67
2022/07/13 12:21:58;;;;;;;0.00;0.00;;;24.00;65.50;;;;;;4986978;28;20065;-67
2022/07/13 12:24:24;;;;;;;0.00;0.00;;;24.00;66.00;;;;;;4990454;28;20062;-68
2022/07/13 12:26:53;;;;;;;0.00;0.00;;;23.90;66.20;;;;;;4991195;28;20557;-69
2022/07/13 12:29:34;;;;;;;0.35;0.30;;;23.80;64.20;;;;;;4988570;28;20746;-68
2022/07/13 12:32:01;;;;;;;;;;;23.70;65.50;;;;;;4986653;28;20050;-68
2022/07/13 12:34:27;;;;;;;0.00;0.00;;;23.70;65.40;;;;;;4979837;28;19926;-68
2022/07/13 12:36:53;;;;;;;0.00;0.00;;;23.80;65.90;;;;;;4991861;28;20057;-68
2022/07/13 12:39:32;;;;;;;0.00;0.00;;;23.80;66.00;;;;;;4974273;28;20130;-68
2022/07/13 12:41:58;;;;;;;0.10;0.10;;;23.70;65.10;;;;;;4985576;28;20054;-68
2022/07/13 12:44:29;;;;;;;0.00;0.00;;;23.70;65.70;;;;;;4981040;28;20070;-68
2022/07/13 12:46:58;;;;;;;0.00;0.00;;;23.80;66.90;;;;;;4986168;28;20041;-68
2022/07/13 12:49:42;;;;;;;0.00;0.00;;;23.80;66.40;;;;;;4979368;28;20133;-69
2022/07/13 12:52:12;;;;;;;0.00;0.00;;;23.70;65.90;;;;;;4980570;28;20050;-68
2022/07/13 12:54:44;;;;;;;0.00;0.00;;;23.50;66.10;;;;;;4983662;28;20038;-68
2022/07/13 12:57:10;;;;;;;0.10;0.10;;;23.60;65.60;;;;;;4989323;28;20051;-68
2022/07/13 12:59:37;;;;;;;0.43;0.40;;;23.70;65.30;;;;;;4990616;28;20871;-68